Time;durP1;ratioP1;P1;durP2;ratioP2;P2;SDS_P1;SDS_P2;PMS_P1;PMS_P2;Temp;Humidity;BMP_temperature;BMP_pressure;BME280_temperature;BME280_humidity;BME280_pressure;Samples;Min_cycle;Max_cycle;Signal;HPM_P1;HPM_P2
2020/12/14 00:00:56;;;;;;;;;;;26.70;44.40;;;;;;5030948;28;19921;-53
2020/12/14 00:03:22;;;;;;;;;;;26.70;44.30;;;;;;5029889;28;20012;-53
2020/12/14 00:05:47;;;;;;;;;;;26.70;44.40;;;;;;5029981;28;19927;-54
2020/12/14 00:08:12;;;;;;;;;;;26.70;44.40;;;;;;5028839;28;20700;-54
2020/12/14 00:10:38;;;;;;;;;;;26.70;44.40;;;;;;5030080;28;19927;-53
2020/12/14 00:13:03;;;;;;;;;;;26.70;44.50;;;;;;5029807;28;20311;-54
2020/12/14 00:15:29;;;;;;;;;;;26.60;44.40;;;;;;5029654;28;19921;-53
2020/12/14 00:17:54;;;;;;;;;;;26.60;44.30;;;;;;5030161;28;19921;-55
2020/12/14 00:20:20;;;;;;;;;;;26.70;44.30;;;;;;5029726;28;19953;-54
2020/12/14 00:22:45;;;;;;;;;;;26.70;44.30;;;;;;5029821;28;20643;-57
2020/12/14 00:25:11;;;;;;;;;;;26.70;44.30;;;;;;5029459;28;19929;-54
2020/12/14 00:27:36;;;;;;;;;;;26.70;44.30;;;;;;5029595;28;19921;-54
2020/12/14 00:30:02;;;;;;;;;;;26.70;44.30;;;;;;5029715;28;20386;-54
2020/12/14 00:32:28;;;;;;;;;;;26.70;44.20;;;;;;5029880;28;20036;-57
2020/12/14 00:34:53;;;;;;;;;;;26.70;44.10;;;;;;5029173;28;20057;-53
2020/12/14 00:37:19;;;;;;;;;;;26.70;44.10;;;;;;5029177;28;20027;-56
2020/12/14 00:39:44;;;;;;;;;;;26.70;44.10;;;;;;5029173;28;20003;-56
2020/12/14 00:42:10;;;;;;;;;;;26.70;44.10;;;;;;5029491;28;20340;-54
2020/12/14 00:44:35;;;;;;;;;;;26.70;44.10;;;;;;5029057;28;19925;-54
2020/12/14 00:47:01;;;;;;;;;;;26.80;44.00;;;;;;5030192;28;19921;-54
2020/12/14 00:49:26;;;;;;;;;;;26.80;44.00;;;;;;5028987;28;20272;-53
2020/12/14 00:51:52;;;;;;;;;;;26.70;44.00;;;;;;5029601;28;19925;-55
2020/12/14 00:54:17;;;;;;;;;;;26.70;44.10;;;;;;5028639;28;19983;-53
2020/12/14 00:56:43;;;;;;;;;;;26.70;44.00;;;;;;5029851;28;19921;-52
2020/12/14 00:59:08;;;;;;;;;;;26.70;44.10;;;;;;5029326;28;20325;-53
2020/12/14 01:01:34;;;;;;;;;;;26.70;44.00;;;;;;5029707;28;19913;-52
2020/12/14 01:03:59;;;;;;;;;;;26.70;44.00;;;;;;5029029;28;20361;-54
2020/12/14 01:06:25;;;;;;;;;;;26.80;43.90;;;;;;5028967;28;20416;-53
2020/12/14 01:08:50;;;;;;;;;;;26.70;43.90;;;;;;5028696;28;19920;-53
2020/12/14 01:11:16;;;;;;;;;;;26.70;43.90;;;;;;5029323;28;19921;-54
2020/12/14 01:13:45;;;;;;;;;;;26.70;43.90;;;;;;5028554;28;19921;-53
2020/12/14 01:16:10;;;;;;;;;;;26.70;43.80;;;;;;5028577;28;19932;-54
2020/12/14 01:18:39;;;;;;;;;;;26.70;43.80;;;;;;5028999;28;20394;-53
2020/12/14 01:21:04;;;;;;;;;;;26.70;43.80;;;;;;5028660;28;19917;-55
2020/12/14 01:23:30;;;;;;;;;;;26.70;43.90;;;;;;5028464;28;19913;-53
2020/12/14 01:25:55;;;;;;;;;;;26.70;43.90;;;;;;5028863;28;19917;-53
2020/12/14 01:28:21;;;;;;;;;;;26.70;43.90;;;;;;5028416;28;19921;-55
2020/12/14 01:30:46;;;;;;;;;;;26.70;43.90;;;;;;5028726;28;20260;-54
2020/12/14 01:33:12;;;;;;;;;;;26.70;43.90;;;;;;5028362;28;20265;-54
2020/12/14 01:35:37;;;;;;;;;;;26.70;43.80;;;;;;5029083;28;19925;-56
2020/12/14 01:38:02;;;;;;;;;;;26.70;43.80;;;;;;5028551;28;19928;-56
2020/12/14 01:40:28;;;;;;;;;;;26.70;43.80;;;;;;5028604;28;20700;-54
2020/12/14 01:42:53;;;;;;;;;;;26.70;43.80;;;;;;5028446;28;19920;-53
2020/12/14 01:45:19;;;;;;;;;;;26.70;43.80;;;;;;5028680;28;20375;-54
2020/12/14 01:47:47;;;;;;;;;;;26.70;43.80;;;;;;5028809;28;21021;-55
2020/12/14 01:50:12;;;;;;;;;;;26.70;43.80;;;;;;5027933;28;19928;-54
2020/12/14 01:52:41;;;;;;;;;;;26.70;43.80;;;;;;5028030;28;19917;-56
2020/12/14 01:55:07;;;;;;;;;;;26.70;43.80;;;;;;5028179;28;19929;-54
2020/12/14 01:57:33;;;;;;;;;;;26.70;43.80;;;;;;5028204;28;19921;-54
2020/12/14 01:59:58;;;;;;;;;;;26.70;43.80;;;;;;5028569;28;19924;-55
2020/12/14 02:02:24;;;;;;;;;;;26.70;43.70;;;;;;5028226;28;19925;-57
2020/12/14 02:04:50;;;;;;;;;;;26.70;43.70;;;;;;5028108;28;20283;-56
2020/12/14 02:07:15;;;;;;;;;;;26.70;43.60;;;;;;5028337;28;19913;-55
2020/12/14 02:09:41;;;;;;;;;;;26.70;43.70;;;;;;5027789;28;20335;-54
2020/12/14 02:12:06;;;;;;;;;;;26.70;43.70;;;;;;5029418;28;21184;-54
2020/12/14 02:14:36;;;;;;;;;;;26.70;43.60;;;;;;5027683;28;19929;-53
2020/12/14 02:17:05;;;;;;;;;;;26.70;43.60;;;;;;5029659;28;20632;-54
2020/12/14 02:19:30;;;;;;;;;;;26.70;43.60;;;;;;5027985;28;19959;-54
2020/12/14 02:21:57;;;;;;;;;;;26.70;43.60;;;;;;5027734;28;19953;-54
2020/12/14 02:24:23;;;;;;;;;;;26.70;43.60;;;;;;5027708;28;19975;-54
2020/12/14 02:26:48;;;;;;;;;;;26.70;43.60;;;;;;5027757;28;19921;-54
2020/12/14 02:29:17;;;;;;;;;;;26.70;43.60;;;;;;5028155;28;19921;-53
2020/12/14 02:31:42;;;;;;;;;;;26.70;43.60;;;;;;5030393;28;19917;-53
2020/12/14 02:34:08;;;;;;;;;;;26.70;43.60;;;;;;5031722;28;19921;-52
2020/12/14 02:36:34;;;;;;;;;;;26.70;43.60;;;;;;5032317;28;19921;-52
2020/12/14 02:38:59;;;;;;;;;;;26.70;43.60;;;;;;5031532;28;19917;-52
2020/12/14 02:41:24;;;;;;;;;;;26.70;43.60;;;;;;5031551;28;19917;-54
2020/12/14 02:43:50;;;;;;;;;;;26.70;43.60;;;;;;5031313;28;19922;-52
2020/12/14 02:46:15;;;;;;;;;;;26.70;44.20;;;;;;5031585;28;19921;-54
2020/12/14 02:48:41;;;;;;;;;;;26.70;43.60;;;;;;5031320;28;19917;-54
2020/12/14 02:51:06;;;;;;;;;;;26.70;43.50;;;;;;5032405;28;19923;-51
2020/12/14 02:53:32;;;;;;;;;;;26.70;43.50;;;;;;5031488;28;20656;-52
2020/12/14 02:55:57;;;;;;;;;;;26.70;43.40;;;;;;5032048;28;19929;-53
2020/12/14 02:58:23;;;;;;;;;;;26.70;43.40;;;;;;5031254;28;19920;-52
2020/12/14 03:00:48;;;;;;;;;;;26.70;43.40;;;;;;5031419;28;20287;-54
2020/12/14 03:03:14;;;;;;;;;;;26.70;43.40;;;;;;5031148;28;19917;-54
2020/12/14 03:05:39;;;;;;;;;;;26.70;43.40;;;;;;5031822;28;19960;-51
2020/12/14 03:08:04;;;;;;;;;;;26.70;44.00;;;;;;5031357;28;19921;-53
2020/12/14 03:10:30;;;;;;;;;;;26.70;43.40;;;;;;5031758;28;19925;-54
2020/12/14 03:12:55;;;;;;;;;;;26.70;43.40;;;;;;5030874;28;19917;-54
2020/12/14 03:15:21;;;;;;;;;;;26.70;43.40;;;;;;5031430;28;19921;-52
2020/12/14 03:17:46;;;;;;;;;;;26.70;43.50;;;;;;5030975;28;20402;-53
2020/12/14 03:20:12;;;;;;;;;;;26.70;43.50;;;;;;5030721;28;19913;-56
2020/12/14 03:22:37;;;;;;;;;;;26.70;43.50;;;;;;5031626;28;19928;-53
2020/12/14 03:25:03;;;;;;;;;;;26.70;43.50;;;;;;5030967;28;20397;-53
2020/12/14 03:27:28;;;;;;;;;;;26.70;43.50;;;;;;5030950;28;19960;-54
2020/12/14 03:29:54;;;;;;;;;;;26.70;43.50;;;;;;5030537;28;19925;-54
2020/12/14 03:32:19;;;;;;;;;;;26.70;43.40;;;;;;5030877;28;19921;-55
2020/12/14 03:34:44;;;;;;;;;;;26.70;43.40;;;;;;5030612;28;19925;-53
2020/12/14 03:37:10;;;;;;;;;;;26.70;43.40;;;;;;5031427;28;19917;-56
2020/12/14 03:39:35;;;;;;;;;;;26.70;43.30;;;;;;5030409;28;19952;-54
2020/12/14 03:42:01;;;;;;;;;;;26.70;43.40;;;;;;5030374;28;19925;-56
2020/12/14 03:44:26;;;;;;;;;;;26.70;43.40;;;;;;5030236;28;19913;-53
2020/12/14 03:46:52;;;;;;;;;;;26.70;43.30;;;;;;5031383;28;19913;-53
2020/12/14 03:49:17;;;;;;;;;;;26.70;43.30;;;;;;5030313;28;20000;-56
2020/12/14 03:51:43;;;;;;;;;;;26.70;43.30;;;;;;5030369;28;21587;-55
2020/12/14 03:54:08;;;;;;;;;;;26.70;43.20;;;;;;5029993;28;19917;-54
2020/12/14 03:56:34;;;;;;;;;;;26.70;43.30;;;;;;5030281;28;20363;-54
2020/12/14 03:59:00;;;;;;;;;;;26.70;43.20;;;;;;5030056;28;19913;-53
2020/12/14 04:01:26;;;;;;;;;;;26.70;43.20;;;;;;5030384;28;19921;-54
2020/12/14 04:03:52;;;;;;;;;;;26.70;43.30;;;;;;5029867;28;19919;-53
2020/12/14 04:06:20;;;;;;;;;;;26.80;43.20;;;;;;5030101;28;19921;-54
2020/12/14 04:08:46;;;;;;;;;;;26.70;43.10;;;;;;5030158;28;20004;-54
2020/12/14 04:11:12;;;;;;;;;;;26.70;43.20;;;;;;5030339;28;20015;-53
2020/12/14 04:13:37;;;;;;;;;;;26.70;43.20;;;;;;5029552;28;19968;-54
2020/12/14 04:16:03;;;;;;;;;;;26.70;43.20;;;;;;5030274;28;19936;-54
2020/12/14 04:18:28;;;;;;;;;;;26.70;43.20;;;;;;5030832;28;19959;-53
2020/12/14 04:20:55;;;;;;;;;;;26.70;43.20;;;;;;5029724;28;19913;-54
2020/12/14 04:23:20;;;;;;;;;;;26.70;43.20;;;;;;5029474;28;20015;-56
2020/12/14 04:25:46;;;;;;;;;;;26.70;43.30;;;;;;5029588;28;20004;-53
2020/12/14 04:28:11;;;;;;;;;;;26.70;43.20;;;;;;5029784;28;19917;-54
2020/12/14 04:30:36;;;;;;;;;;;26.70;43.30;;;;;;5030144;28;19919;-54
2020/12/14 04:33:02;;;;;;;;;;;26.70;43.30;;;;;;5029770;28;19917;-56
2020/12/14 04:35:27;;;;;;;;;;;26.60;43.20;;;;;;5029455;28;19986;-56
2020/12/14 04:37:53;;;;;;;;;;;26.70;43.20;;;;;;5029449;28;19932;-55
2020/12/14 04:40:19;;;;;;;;;;;26.60;43.20;;;;;;5029433;28;19928;-54
2020/12/14 04:42:45;;;;;;;;;;;26.60;43.30;;;;;;5029228;28;20332;-54
2020/12/14 04:45:11;;;;;;;;;;;26.70;43.30;;;;;;5029197;28;19944;-54
2020/12/14 04:47:36;;;;;;;;;;;26.70;43.20;;;;;;5033291;28;19924;-54
2020/12/14 04:50:01;;;;;;;;;;;26.70;43.20;;;;;;5034215;28;19913;-54
2020/12/14 04:52:27;;;;;;;;;;;26.70;43.10;;;;;;5026934;28;19909;-54
2020/12/14 04:54:52;;;;;;;;;;;26.70;43.10;;;;;;5021464;28;19929;-55
2020/12/14 04:57:19;;;;;;;;;;;26.80;43.00;;;;;;5028098;28;19913;-53
2020/12/14 04:59:45;;;;;;;;;;;26.70;43.10;;;;;;5028790;28;19920;-53
2020/12/14 05:02:10;;;;;;;;;;;26.70;43.10;;;;;;5029243;28;20345;-53
2020/12/14 05:04:36;;;;;;;;;;;26.70;43.10;;;;;;5029021;28;20417;-56
2020/12/14 05:07:01;;;;;;;;;;;26.70;43.20;;;;;;5028959;28;20390;-54
2020/12/14 05:09:27;;;;;;;;;;;26.70;43.20;;;;;;5028547;28;19935;-57
2020/12/14 05:11:52;;;;;;;;;;;26.70;43.20;;;;;;5029016;28;19971;-57
2020/12/14 05:14:19;;;;;;;;;;;26.70;43.10;;;;;;5027002;28;19920;-57
2020/12/14 05:16:44;;;;;;;;;;;26.70;43.00;;;;;;5029524;28;20378;-56
2020/12/14 05:19:19;;;;;;;;;;;26.70;43.00;;;;;;5029162;28;19917;-54
2020/12/14 05:21:45;;;;;;;;;;;26.70;43.10;;;;;;5028506;28;21281;-54
2020/12/14 05:24:10;;;;;;;;;;;26.70;43.10;;;;;;5028067;28;19917;-55
2020/12/14 05:26:36;;;;;;;;;;;26.70;43.10;;;;;;5028891;28;19920;-53
2020/12/14 05:29:01;;;;;;;;;;;26.70;43.00;;;;;;5027251;28;21534;-56
2020/12/14 05:31:27;;;;;;;;;;;26.70;43.00;;;;;;5027635;28;19924;-56
2020/12/14 05:33:52;;;;;;;;;;;26.70;43.00;;;;;;5028644;28;21342;-52
2020/12/14 05:36:18;;;;;;;;;;;26.70;43.00;;;;;;5027060;28;19928;-53
2020/12/14 05:38:43;;;;;;;;;;;26.70;43.10;;;;;;5028281;28;19974;-53
2020/12/14 05:41:09;;;;;;;;;;;26.70;43.10;;;;;;5027317;28;19957;-56
2020/12/14 05:43:34;;;;;;;;;;;26.70;43.10;;;;;;5027309;28;19921;-53
2020/12/14 05:46:12;;;;;;;;;;;26.70;43.10;;;;;;5028981;28;19917;-54
2020/12/14 05:48:38;;;;;;;;;;;26.70;43.00;;;;;;5028385;28;20418;-53
2020/12/14 05:51:04;;;;;;;;;;;26.70;42.90;;;;;;5028347;28;19996;-54
2020/12/14 05:53:32;;;;;;;;;;;26.70;43.00;;;;;;5028385;28;20011;-54
2020/12/14 05:55:58;;;;;;;;;;;26.70;42.90;;;;;;5027937;28;20366;-54
2020/12/14 05:58:23;;;;;;;;;;;26.70;43.00;;;;;;5026733;28;19975;-54
2020/12/14 06:00:49;;;;;;;;;;;26.70;43.00;;;;;;5028267;28;19913;-54
2020/12/14 06:03:14;;;;;;;;;;;26.70;43.00;;;;;;5026564;28;19988;-56
2020/12/14 06:05:40;;;;;;;;;;;26.70;42.90;;;;;;5028921;28;19917;-54
2020/12/14 06:08:14;;;;;;;;;;;26.70;42.90;;;;;;5031259;28;19921;-53
2020/12/14 06:10:40;;;;;;;;;;;26.70;42.90;;;;;;5031245;28;19922;-54
2020/12/14 06:13:06;;;;;;;;;;;26.70;42.90;;;;;;5030710;28;19913;-56
2020/12/14 06:15:32;;;;;;;;;;;26.70;42.90;;;;;;5031791;28;20011;-54
2020/12/14 06:17:57;;;;;;;;;;;26.70;42.90;;;;;;5032036;28;19999;-56
2020/12/14 06:20:23;;;;;;;;;;;26.70;42.90;;;;;;5031221;28;20465;-54
2020/12/14 06:22:57;;;;;;;;;;;26.70;42.90;;;;;;5031673;28;19928;-56
2020/12/14 06:25:22;;;;;;;;;;;26.70;42.80;;;;;;5030535;28;19971;-54
2020/12/14 06:27:48;;;;;;;;;;;26.70;42.90;;;;;;5031810;28;19921;-54
2020/12/14 06:30:30;;;;;;;;;;;26.70;42.90;;;;;;5031316;28;19975;-54
2020/12/14 06:32:59;;;;;;;;;;;26.70;42.90;;;;;;5027506;28;19913;-53
2020/12/14 06:35:41;;;;;;;;;;;26.70;43.00;;;;;;5036407;28;19923;-56
2020/12/14 06:38:06;;;;;;;;;;;26.70;42.90;;;;;;5016988;28;19909;-53
2020/12/14 06:40:52;;;;;;;;;;;26.70;42.90;;;;;;5024441;28;19913;-53
2020/12/14 06:43:30;;;;;;;;;;;26.70;42.90;;;;;;5031073;28;19979;-53
2020/12/14 06:45:56;;;;;;;;;;;26.70;43.00;;;;;;5031530;28;20412;-56
2020/12/14 06:48:27;;;;;;;;;;;26.70;43.00;;;;;;5032756;28;19921;-56
2020/12/14 06:50:54;;;;;;;;;;;26.70;43.10;;;;;;5030273;28;19921;-54
2020/12/14 06:53:36;;;;;;;;;;;26.70;43.00;;;;;;5030708;28;19917;-55
2020/12/14 06:56:01;;;;;;;;;;;26.70;42.80;;;;;;5030365;28;19921;-58
2020/12/14 06:58:31;;;;;;;;;;;26.60;43.00;;;;;;5031047;28;20107;-55
2020/12/14 07:00:56;;;;;;;;;;;26.70;43.00;;;;;;5031681;28;19913;-56
2020/12/14 07:03:40;;;;;;;;;;;26.60;40.50;;;;;;5030994;28;19920;-54
2020/12/14 07:06:06;;;;;;;;;;;26.40;38.50;;;;;;5030846;28;19932;-55
2020/12/14 07:08:38;;;;;;;;;;;26.10;40.10;;;;;;5031192;28;19913;-63
2020/12/14 07:11:14;;;;;;;;;;;26.20;40.70;;;;;;5030771;28;19921;-57
2020/12/14 07:13:40;;;;;;;;;;;26.40;40.40;;;;;;5030680;28;19917;-61
2020/12/14 07:16:08;;;;;;;;;;;26.40;40.20;;;;;;5031358;28;19928;-53
2020/12/14 07:18:34;;;;;;;;;;;26.40;40.20;;;;;;5031613;28;19921;-54
2020/12/14 07:21:06;;;;;;;;;;;26.60;40.10;;;;;;5030652;28;19917;-53
2020/12/14 07:23:32;;;;;;;;;;;26.70;40.00;;;;;;5030512;28;19925;-50
2020/12/14 07:25:58;;;;;;;;;;;26.70;40.20;;;;;;5035554;28;19924;-50
2020/12/14 07:28:36;;;;;;;;;;;26.70;40.40;;;;;;5035384;28;19917;-49
2020/12/14 07:31:08;;;;;;;;;;;26.70;40.50;;;;;;5019734;28;20326;-49
2020/12/14 07:33:34;;;;;;;;;;;26.60;40.60;;;;;;5015878;28;19920;-48
2020/12/14 07:36:10;;;;;;;;;;;26.60;40.80;;;;;;5015408;28;20346;-46
2020/12/14 07:38:45;;;;;;;;;;;26.60;41.00;;;;;;5015692;28;19948;-49
2020/12/14 07:41:11;;;;;;;;;;;26.60;41.40;;;;;;5015736;28;19928;-49
2020/12/14 07:43:46;;;;;;;;;;;26.50;41.60;;;;;;5021978;28;19913;-49
2020/12/14 07:46:18;;;;;;;;;;;26.60;42.10;;;;;;5023431;28;19910;-49
2020/12/14 07:48:53;;;;;;;;;;;26.60;45.30;;;;;;5018160;28;19987;-47
2020/12/14 07:51:19;;;;;;;;;;;26.60;46.70;;;;;;5024498;28;19916;-47
2020/12/14 07:53:45;;;;;;;;;;;26.60;47.10;;;;;;5034888;28;20290;-49
2020/12/14 07:56:10;;;;;;;;;;;26.60;47.20;;;;;;5034817;28;20023;-50
2020/12/14 07:58:48;;;;;;;;;;;26.70;47.50;;;;;;5035169;28;19909;-50
2020/12/14 08:01:17;;;;;;;;;;;26.70;47.30;;;;;;5034672;28;19920;-50
2020/12/14 08:03:43;;;;;;;;;;;26.70;47.30;;;;;;5034941;28;19913;-51
2020/12/14 08:06:10;;;;;;;;;;;26.70;47.30;;;;;;5034726;28;19917;-52
2020/12/14 08:08:35;;;;;;;;;;;26.60;47.20;;;;;;5034850;28;19909;-51
2020/12/14 08:11:01;;;;;;;;;;;26.70;47.20;;;;;;5033211;28;19917;-51
2020/12/14 08:13:26;;;;;;;;;;;26.70;47.10;;;;;;5033658;28;19913;-51
2020/12/14 08:15:51;;;;;;;;;;;26.70;47.10;;;;;;5034807;28;19921;-49
2020/12/14 08:18:17;;;;;;;;;;;26.70;47.00;;;;;;5033125;28;19909;-52
2020/12/14 08:20:43;;;;;;;;;;;26.70;46.70;;;;;;5033583;28;19913;-49
2020/12/14 08:23:21;;;;;;;;;;;26.70;46.70;;;;;;5034465;28;19909;-51
2020/12/14 08:25:47;;;;;;;;;;;26.80;46.70;;;;;;5034158;28;19982;-48
2020/12/14 08:28:12;;;;;;;;;;;26.70;47.10;;;;;;5033494;28;20402;-49
2020/12/14 08:30:38;;;;;;;;;;;26.70;46.70;;;;;;5034298;28;19910;-49
2020/12/14 08:33:08;;;;;;;;;;;26.70;47.20;;;;;;5034178;28;19913;-50
2020/12/14 08:35:33;;;;;;;;;;;26.70;46.50;;;;;;5034303;28;20325;-48
2020/12/14 08:38:03;;;;;;;;;;;26.70;46.50;;;;;;5034367;28;19909;-49
2020/12/14 08:40:28;;;;;;;;;;;26.70;46.50;;;;;;5034284;28;19915;-48
2020/12/14 08:43:05;;;;;;;;;;;26.70;46.50;;;;;;5034335;28;20278;-48
2020/12/14 08:45:31;;;;;;;;;;;26.70;46.50;;;;;;5033985;28;19909;-48
2020/12/14 08:47:59;;;;;;;;;;;26.70;46.30;;;;;;5034160;28;20297;-49
2020/12/14 08:50:24;;;;;;;;;;;26.70;46.30;;;;;;5033634;28;20359;-49
2020/12/14 08:53:02;;;;;;;;;;;26.70;46.20;;;;;;5033574;28;19967;-49
2020/12/14 08:55:40;;;;;;;;;;;26.80;46.20;;;;;;5023277;28;19924;-48
2020/12/14 08:58:06;;;;;;;;;;;26.80;46.20;;;;;;5033830;28;19932;-48
2020/12/14 09:00:31;;;;;;;;;;;26.80;46.10;;;;;;5033690;28;20363;-48
2020/12/14 09:03:03;;;;;;;;;;;26.80;46.00;;;;;;5033790;28;19913;-48
2020/12/14 09:05:31;;;;;;;;;;;26.80;46.00;;;;;;5033578;28;19917;-49
2020/12/14 09:08:09;;;;;;;;;;;26.80;46.00;;;;;;5033774;28;19913;-48
2020/12/14 09:10:34;;;;;;;;;;;26.70;46.10;;;;;;5033464;28;19909;-49
2020/12/14 09:13:03;;;;;;;;;;;26.70;46.10;;;;;;5033791;28;20351;-48
2020/12/14 09:15:29;;;;;;;;;;;26.70;46.10;;;;;;5031606;28;19976;-49
2020/12/14 09:18:00;;;;;;;;;;;26.70;46.10;;;;;;5031528;28;21828;-49
2020/12/14 09:20:25;;;;;;;;;;;26.90;45.90;;;;;;5032641;28;19913;-60
2020/12/14 09:22:51;;;;;;;;;;;26.80;46.20;;;;;;5033188;28;19932;-47
2020/12/14 09:25:16;;;;;;;;;;;27.00;46.00;;;;;;5032734;28;19917;-49
2020/12/14 09:27:42;;;;;;;;;;;27.00;46.10;;;;;;5032130;28;19960;-58
2020/12/14 09:30:07;;;;;;;;;;;27.00;46.20;;;;;;5033207;28;19920;-59
2020/12/14 09:32:34;;;;;;;;;;;27.00;46.10;;;;;;5033120;28;19948;-54
2020/12/14 09:35:00;;;;;;;;;;;27.10;46.10;;;;;;5032816;28;20284;-60
2020/12/14 09:37:25;;;;;;;;;;;27.10;45.90;;;;;;5032717;28;19920;-59
2020/12/14 09:39:51;;;;;;;;;;;27.20;46.00;;;;;;5032773;28;19956;-62
2020/12/14 09:42:16;;;;;;;;;;;27.20;45.90;;;;;;5033383;28;20008;-60
2020/12/14 09:44:42;;;;;;;;;;;27.20;46.50;;;;;;5032951;28;19913;-62
2020/12/14 09:47:09;;;;;;;;;;;27.20;46.00;;;;;;5033065;28;20354;-56
2020/12/14 09:49:35;;;;;;;;;;;27.20;46.00;;;;;;5032810;28;19959;-54
2020/12/14 09:52:00;;;;;;;;;;;27.20;46.20;;;;;;5032150;28;20314;-56
2020/12/14 09:54:26;;;;;;;;;;;27.20;46.10;;;;;;5032624;28;19913;-53
2020/12/14 09:56:51;;;;;;;;;;;27.20;46.10;;;;;;5032971;28;19913;-53
2020/12/14 09:59:17;;;;;;;;;;;27.20;46.00;;;;;;5032517;28;19920;-59
2020/12/14 10:01:42;;;;;;;;;;;27.30;45.90;;;;;;5031767;28;20059;-55
2020/12/14 10:04:08;;;;;;;;;;;27.20;46.10;;;;;;5024480;28;19967;-54
2020/12/14 10:06:33;;;;;;;;;;;27.20;46.10;;;;;;5032783;28;20391;-53
2020/12/14 10:08:59;;;;;;;;;;;27.20;45.90;;;;;;5032743;28;19909;-54
2020/12/14 10:11:24;;;;;;;;;;;27.20;45.90;;;;;;5029345;28;20359;-53
2020/12/14 10:13:50;;;;;;;;;;;27.10;46.40;;;;;;5032484;28;19913;-52
2020/12/14 10:16:15;;;;;;;;;;;27.10;45.70;;;;;;5032127;28;19928;-52
2020/12/14 10:18:41;;;;;;;;;;;27.10;45.80;;;;;;5032552;28;20007;-54
2020/12/14 10:21:09;;;;;;;;;;;27.00;45.80;;;;;;5032896;28;20338;-53
2020/12/14 10:23:34;;;;;;;;;;;27.00;45.70;;;;;;5032515;28;20329;-53
2020/12/14 10:26:00;;;;;;;;;;;27.00;45.70;;;;;;5032423;28;20386;-53
2020/12/14 10:28:25;;;;;;;;;;;26.90;45.70;;;;;;5032113;28;20363;-52
2020/12/14 10:30:51;;;;;;;;;;;26.90;45.70;;;;;;5032306;28;19913;-54
2020/12/14 10:33:18;;;;;;;;;;;26.90;45.90;;;;;;5032279;28;19920;-54
2020/12/14 10:35:44;;;;;;;;;;;26.90;45.80;;;;;;5032466;28;19927;-53
2020/12/14 10:38:10;;;;;;;;;;;26.90;45.90;;;;;;5032491;28;19948;-52
2020/12/14 10:40:35;;;;;;;;;;;26.80;45.80;;;;;;5032055;28;19948;-53
2020/12/14 10:43:01;;;;;;;;;;;26.90;45.90;;;;;;5032483;28;20337;-52
2020/12/14 10:45:26;;;;;;;;;;;26.90;45.90;;;;;;5032165;28;19913;-52
2020/12/14 10:47:53;;;;;;;;;;;26.80;46.40;;;;;;5032711;28;19909;-53
2020/12/14 10:50:18;;;;;;;;;;;26.90;45.80;;;;;;5031888;28;19967;-55
2020/12/14 10:52:44;;;;;;;;;;;26.90;45.80;;;;;;5034819;28;19912;-56
2020/12/14 10:55:09;;;;;;;;;;;27.00;45.70;;;;;;5035403;28;20264;-53
2020/12/14 10:57:35;;;;;;;;;;;27.10;45.50;;;;;;5036337;28;20371;-61
2020/12/14 11:00:06;;;;;;;;;;;27.20;45.40;;;;;;5035940;28;19920;-53
2020/12/14 11:02:33;;;;;;;;;;;27.20;45.40;;;;;;5021223;28;19920;-50
2020/12/14 11:04:59;;;;;;;;;;;27.10;45.60;;;;;;5036172;28;19999;-49
2020/12/14 11:07:24;;;;;;;;;;;27.10;45.50;;;;;;5036058;28;20368;-51
2020/12/14 11:09:49;;;;;;;;;;;27.10;45.40;;;;;;5032128;28;20428;-49
2020/12/14 11:12:15;;;;;;;;;;;27.20;45.40;;;;;;5015958;28;19921;-50
2020/12/14 11:14:40;;;;;;;;;;;27.10;45.30;;;;;;5029691;28;20379;-54
2020/12/14 11:17:06;;;;;;;;;;;27.10;45.30;;;;;;5035658;28;19940;-51
2020/12/14 11:19:31;;;;;;;;;;;27.10;45.40;;;;;;5035725;28;19920;-49
2020/12/14 11:21:57;;;;;;;;;;;27.00;45.40;;;;;;5035540;28;19916;-52
2020/12/14 11:24:23;;;;;;;;;;;27.00;45.40;;;;;;5035547;28;19967;-50
2020/12/14 11:26:48;;;;;;;;;;;27.00;45.40;;;;;;5035583;28;19913;-53
2020/12/14 11:29:14;;;;;;;;;;;27.00;45.40;;;;;;5035126;28;19963;-53
2020/12/14 11:31:39;;;;;;;;;;;27.00;45.40;;;;;;5035406;28;19988;-49
2020/12/14 11:34:05;;;;;;;;;;;27.00;45.40;;;;;;5035393;28;19924;-51
2020/12/14 11:36:31;;;;;;;;;;;27.10;45.50;;;;;;5035441;28;19917;-50
2020/12/14 11:38:56;;;;;;;;;;;27.00;45.60;;;;;;5034998;28;20497;-50
2020/12/14 11:41:22;;;;;;;;;;;27.00;45.50;;;;;;5035337;28;20004;-50
2020/12/14 11:43:47;;;;;;;;;;;27.00;45.50;;;;;;5034763;28;20295;-50
2020/12/14 11:46:13;;;;;;;;;;;27.10;45.50;;;;;;5035375;28;20283;-50
2020/12/14 11:48:38;;;;;;;;;;;27.10;45.40;;;;;;5035185;28;19960;-51
2020/12/14 11:51:04;;;;;;;;;;;27.10;45.30;;;;;;5035198;28;19999;-51
2020/12/14 11:53:29;;;;;;;;;;;27.10;45.30;;;;;;5034960;28;20650;-50
2020/12/14 11:55:55;;;;;;;;;;;27.00;45.30;;;;;;5034486;28;19932;-49
2020/12/14 11:58:20;;;;;;;;;;;27.10;45.30;;;;;;5034540;28;19913;-50
2020/12/14 12:00:46;;;;;;;;;;;27.10;45.30;;;;;;5034894;28;20359;-50
2020/12/14 12:03:11;;;;;;;;;;;27.10;45.30;;;;;;5033465;28;19913;-50
2020/12/14 12:05:37;;;;;;;;;;;27.10;45.30;;;;;;5034895;28;19909;-49
2020/12/14 12:08:02;;;;;;;;;;;27.10;45.30;;;;;;5034540;28;20008;-49
2020/12/14 12:10:28;;;;;;;;;;;27.10;45.30;;;;;;5034653;28;20386;-50
2020/12/14 12:12:53;;;;;;;;;;;27.10;45.30;;;;;;5034353;28;19937;-50
2020/12/14 12:15:19;;;;;;;;;;;27.10;45.30;;;;;;5034177;28;19927;-50
2020/12/14 12:17:44;;;;;;;;;;;27.10;45.40;;;;;;5034695;28;19910;-49
2020/12/14 12:20:10;;;;;;;;;;;27.10;45.50;;;;;;5033825;28;19917;-50
2020/12/14 12:22:35;;;;;;;;;;;27.20;45.40;;;;;;5034329;28;20059;-50
2020/12/14 12:25:01;;;;;;;;;;;27.20;45.40;;;;;;5034202;28;19956;-50
2020/12/14 12:27:26;;;;;;;;;;;27.20;45.40;;;;;;5033909;28;19920;-49
2020/12/14 12:29:52;;;;;;;;;;;27.20;45.40;;;;;;5034273;28;19920;-50
2020/12/14 12:32:17;;;;;;;;;;;27.10;45.40;;;;;;5034302;28;20306;-49
2020/12/14 12:34:43;;;;;;;;;;;27.10;45.40;;;;;;5034188;28;20148;-51
2020/12/14 12:37:08;;;;;;;;;;;27.10;45.40;;;;;;5034175;28;19944;-50
2020/12/14 12:39:34;;;;;;;;;;;27.20;45.50;;;;;;5034183;28;20286;-50
2020/12/14 12:41:59;;;;;;;;;;;27.10;45.40;;;;;;5034189;28;19909;-51
2020/12/14 12:44:25;;;;;;;;;;;27.10;45.40;;;;;;5033777;28;20003;-50
2020/12/14 12:46:50;;;;;;;;;;;27.10;45.30;;;;;;5034095;28;19913;-49
2020/12/14 12:49:16;;;;;;;;;;;27.20;45.40;;;;;;5033727;28;20000;-51
2020/12/14 12:51:48;;;;;;;;;;;27.10;45.30;;;;;;5034059;28;19956;-50
2020/12/14 12:54:14;;;;;;;;;;;27.20;45.30;;;;;;5033681;28;19975;-51
2020/12/14 12:56:39;;;;;;;;;;;27.20;45.30;;;;;;5033493;28;20339;-51
2020/12/14 12:59:05;;;;;;;;;;;27.20;45.30;;;;;;5033607;28;20324;-52
2020/12/14 13:01:30;;;;;;;;;;;27.20;45.20;;;;;;5033272;28;20452;-50
2020/12/14 13:03:56;;;;;;;;;;;27.20;45.20;;;;;;5021214;28;19920;-50
2020/12/14 13:06:26;;;;;;;;;;;27.20;45.20;;;;;;5024152;28;19917;-50
2020/12/14 13:08:51;;;;;;;;;;;27.20;45.20;;;;;;5033500;28;19913;-50
2020/12/14 13:11:21;;;;;;;;;;;27.20;45.20;;;;;;5033485;28;20272;-50
2020/12/14 13:13:46;;;;;;;;;;;27.30;45.20;;;;;;5033519;28;19913;-53
2020/12/14 13:16:11;;;;;;;;;;;27.20;45.10;;;;;;5032697;28;19931;-52
2020/12/14 13:18:37;;;;;;;;;;;27.20;45.20;;;;;;5033359;28;19924;-52
2020/12/14 13:21:02;;;;;;;;;;;27.20;45.20;;;;;;5033673;28;20360;-51
2020/12/14 13:23:28;;;;;;;;;;;27.20;45.20;;;;;;5033091;28;19909;-51
2020/12/14 13:25:53;;;;;;;;;;;27.20;45.20;;;;;;5033309;28;19917;-51
2020/12/14 13:28:19;;;;;;;;;;;27.20;45.10;;;;;;5032844;28;19971;-49
2020/12/14 13:30:44;;;;;;;;;;;27.20;45.10;;;;;;5033248;28;20076;-50
2020/12/14 13:33:10;;;;;;;;;;;27.20;45.00;;;;;;5032854;28;20374;-50
2020/12/14 13:35:35;;;;;;;;;;;27.20;45.00;;;;;;5032974;28;19923;-50
2020/12/14 13:38:00;;;;;;;;;;;27.20;45.00;;;;;;5033141;28;19909;-49
2020/12/14 13:40:26;;;;;;;;;;;27.20;45.00;;;;;;5032831;28;20272;-50
2020/12/14 13:42:51;;;;;;;;;;;27.20;45.10;;;;;;5033008;28;19921;-50
2020/12/14 13:45:17;;;;;;;;;;;27.20;45.10;;;;;;5032926;28;19917;-50
2020/12/14 13:47:42;;;;;;;;;;;27.20;45.20;;;;;;5033319;28;20264;-53
2020/12/14 13:50:08;;;;;;;;;;;27.20;45.30;;;;;;5032943;28;19913;-51
2020/12/14 13:52:33;;;;;;;;;;;27.20;45.60;;;;;;5032425;28;20004;-48
2020/12/14 13:55:00;;;;;;;;;;;27.20;45.90;;;;;;5032047;28;19917;-50
2020/12/14 13:57:25;;;;;;;;;;;27.20;45.90;;;;;;5032059;28;19920;-51
2020/12/14 13:59:50;;;;;;;;;;;27.20;45.90;;;;;;5032866;28;19913;-51
2020/12/14 14:02:16;;;;;;;;;;;27.20;46.00;;;;;;5032447;28;20322;-52
2020/12/14 14:04:41;;;;;;;;;;;27.20;46.00;;;;;;5014269;28;19910;-52
2020/12/14 14:07:07;;;;;;;;;;;27.20;46.20;;;;;;5013418;28;19909;-51
2020/12/14 14:09:33;;;;;;;;;;;27.20;46.30;;;;;;5027084;28;19940;-54
2020/12/14 14:11:59;;;;;;;;;;;27.20;46.10;;;;;;5032542;28;19921;-53